CMA CGM Herodote — MFEP — position and weather

sailwx.info

Track history (hours):
 
Tides and Currents Weather Stations Pressure Air Temp Water Temp Dewpoint Dewpoint Depression Visibility Wind Speed Wind Dir Waves Ship Positions

CMA CGM Herodote

Last reported at 2015-Jun-19 16:14 UTC. Time now 2015-Jul-01 04:49 UTC.
Position N 16°06' W 062°52'.
Warning: this ship's position is 11 days out of date.

Length 170 m; draft 8.5 m.

Type: Ship (hazmat cat A). MMSI: 235051085.

Date/timePositionNaut miles runAvg speedWind from/ knotsBaromVisibWave heightAir tempDewpointWater temp
2015-Jun-19 16:14N 16°06' W 062°52'9118.6
2015-Jun-19 11:20N 17°36' W 063°06'1518.7
2015-Jun-19 10:32N 17°51' W 063°06'10 0.8
2015-Jun-18 22:08N 18°01' W 063°03'0 0.0
2015-Jun-18 19:11N 18°01' W 063°03'0 0.0
2015-Jun-18 16:21N 18°01' W 063°03'4 4.4
2015-Jun-18 15:33N 17°58' W 063°05'1614.6
2015-Jun-18 14:27N 18°03' W 062°49'2018.0
2015-Jun-18 13:20N 18°11' W 062°30'1518.3
2015-Jun-18 12:31N 18°22' W 062°19'  
2015-Jun-10 18:22N 49°56' W 003°21'1719.8
2015-Jun-10 17:31N 50°01' W 002°55'1819.1
2015-Jun-10 16:33N 50°06' W 002°28'5914.7
2015-Jun-10 12:33N 49°46' W 001°02'1717.0
2015-Jun-10 11:33N 49°40' W 000°38'1717.1
2015-Jun-10 10:33N 49°33' W 000°13'1313.3
2015-Jun-10 09:34N 49°29' E 000°06'3 2.5
2015-Jun-10 08:31N 49°29' E 000°10'0 0.0
2015-Jun-10 07:31N 49°29' E 000°10'0 0.0
2015-Jun-10 06:31N 49°29' E 000°10'0 0.0
2015-Jun-10 05:31N 49°29' E 000°10'0 0.0
2015-Jun-10 04:31N 49°29' E 000°10'0 0.0
2015-Jun-10 03:28N 49°29' E 000°10'0 0.0
2015-Jun-10 02:31N 49°29' E 000°10'0 0.0
2015-Jun-10 01:31N 49°29' E 000°10'0 0.0
2015-Jun-10 00:31N 49°29' E 000°10'0 0.0
2015-Jun-09 23:31N 49°29' E 000°10'0 0.0
2015-Jun-09 22:31N 49°29' E 000°10'0 0.0
2015-Jun-09 21:31N 49°29' E 000°10'0 0.0
2015-Jun-09 20:31N 49°29' E 000°10'0 0.0
2015-Jun-09 19:31N 49°29' E 000°10'0 0.0
2015-Jun-09 18:31N 49°29' E 000°10'0 0.0
2015-Jun-09 17:31N 49°29' E 000°10'0 0.0
2015-Jun-09 16:31N 49°29' E 000°10'  
Track history (hours):
 
Tides and Currents Weather Stations Pressure Air Temp Water Temp Dewpoint Dewpoint Depression Visibility Wind Speed Wind Dir Waves Ship Positions

CMA CGM Herodote

Last reported at 2015-Jun-19 16:14 UTC. Time now 2015-Jul-01 04:49 UTC.
Position N 16°06' W 062°52'.
Warning: this ship's position is 11 days out of date.

Length 170 m; draft 8.5 m.

Type: Ship (hazmat cat A). MMSI: 235051085.

Date/timePositionNaut miles runAvg speedWind from/ knotsBaromVisibWave heightAir tempDewpointWater temp
2015-Jun-19 16:14N 16°06' W 062°52'9118.6
2015-Jun-19 11:20N 17°36' W 063°06'1518.7
2015-Jun-19 10:32N 17°51' W 063°06'10 0.8
2015-Jun-18 22:08N 18°01' W 063°03'0 0.0
2015-Jun-18 19:11N 18°01' W 063°03'0 0.0
2015-Jun-18 16:21N 18°01' W 063°03'4 4.4
2015-Jun-18 15:33N 17°58' W 063°05'1614.6
2015-Jun-18 14:27N 18°03' W 062°49'2018.0
2015-Jun-18 13:20N 18°11' W 062°30'1518.3
2015-Jun-18 12:31N 18°22' W 062°19'  
2015-Jun-10 18:22N 49°56' W 003°21'1719.8
2015-Jun-10 17:31N 50°01' W 002°55'1819.1
2015-Jun-10 16:33N 50°06' W 002°28'5914.7
2015-Jun-10 12:33N 49°46' W 001°02'1717.0
2015-Jun-10 11:33N 49°40' W 000°38'1717.1
2015-Jun-10 10:33N 49°33' W 000°13'1313.3
2015-Jun-10 09:34N 49°29' E 000°06'3 2.5
2015-Jun-10 08:31N 49°29' E 000°10'0 0.0
2015-Jun-10 07:31N 49°29' E 000°10'0 0.0
2015-Jun-10 06:31N 49°29' E 000°10'0 0.0
2015-Jun-10 05:31N 49°29' E 000°10'0 0.0
2015-Jun-10 04:31N 49°29' E 000°10'0 0.0
2015-Jun-10 03:28N 49°29' E 000°10'0 0.0
2015-Jun-10 02:31N 49°29' E 000°10'0 0.0
2015-Jun-10 01:31N 49°29' E 000°10'0 0.0
2015-Jun-10 00:31N 49°29' E 000°10'0 0.0
2015-Jun-09 23:31N 49°29' E 000°10'0 0.0
2015-Jun-09 22:31N 49°29' E 000°10'0 0.0
2015-Jun-09 21:31N 49°29' E 000°10'0 0.0
2015-Jun-09 20:31N 49°29' E 000°10'0 0.0
2015-Jun-09 19:31N 49°29' E 000°10'0 0.0
2015-Jun-09 18:31N 49°29' E 000°10'0 0.0
2015-Jun-09 17:31N 49°29' E 000°10'0 0.0
2015-Jun-09 16:31N 49°29' E 000°10'  

Dump ship's entire track history